sensor_id;sensor_type;location;lat;lon;timestamp;temperature;humidity
10828;DHT22;5467;59.334;13.512;2022-12-29T00:00:55;-0.80;99.90
10828;DHT22;5467;59.334;13.512;2022-12-29T00:03:22;-0.70;99.90
10828;DHT22;5467;59.334;13.512;2022-12-29T00:05:54;-0.70;99.90
10828;DHT22;5467;59.334;13.512;2022-12-29T00:08:21;-0.70;99.90
10828;DHT22;5467;59.334;13.512;2022-12-29T00:11:05;-0.70;99.90
10828;DHT22;5467;59.334;13.512;2022-12-29T00:13:32;-0.60;99.90
10828;DHT22;5467;59.334;13.512;2022-12-29T00:16:18;-0.70;99.90
10828;DHT22;5467;59.334;13.512;2022-12-29T00:18:45;-0.70;99.90
10828;DHT22;5467;59.334;13.512;2022-12-29T00:21:13;-0.70;99.90
10828;DHT22;5467;59.334;13.512;2022-12-29T00:23:58;-0.70;99.90
10828;DHT22;5467;59.334;13.512;2022-12-29T00:26:43;-0.60;99.90
10828;DHT22;5467;59.334;13.512;2022-12-29T00:29:27;-0.60;99.90
10828;DHT22;5467;59.334;13.512;2022-12-29T00:32:13;-0.60;99.90
10828;DHT22;5467;59.334;13.512;2022-12-29T00:34:58;-0.60;99.90
10828;DHT22;5467;59.334;13.512;2022-12-29T00:37:38;-0.60;99.90
10828;DHT22;5467;59.334;13.512;2022-12-29T00:40:24;-0.60;99.90
10828;DHT22;5467;59.334;13.512;2022-12-29T00:43:08;-0.60;99.90
10828;DHT22;5467;59.334;13.512;2022-12-29T00:45:53;-0.60;99.90
10828;DHT22;5467;59.334;13.512;2022-12-29T00:48:22;-0.60;99.90
10828;DHT22;5467;59.334;13.512;2022-12-29T00:51:03;-0.50;99.90
10828;DHT22;5467;59.334;13.512;2022-12-29T00:53:30;-0.50;99.90
10828;DHT22;5467;59.334;13.512;2022-12-29T00:55:57;-0.50;99.90
10828;DHT22;5467;59.334;13.512;2022-12-29T00:58:27;-0.50;99.90
10828;DHT22;5467;59.334;13.512;2022-12-29T01:01:01;-0.50;99.90
10828;DHT22;5467;59.334;13.512;2022-12-29T01:03:30;-0.50;99.90
10828;DHT22;5467;59.334;13.512;2022-12-29T01:06:00;-0.50;99.90
10828;DHT22;5467;59.334;13.512;2022-12-29T01:08:27;-0.50;99.90
10828;DHT22;5467;59.334;13.512;2022-12-29T01:11:00;-0.50;99.90
10828;DHT22;5467;59.334;13.512;2022-12-29T01:13:26;-0.50;99.90
10828;DHT22;5467;59.334;13.512;2022-12-29T01:15:54;-0.50;99.90
10828;DHT22;5467;59.334;13.512;2022-12-29T01:18:22;-0.50;99.90
10828;DHT22;5467;59.334;13.512;2022-12-29T01:20:51;-0.50;99.90
10828;DHT22;5467;59.334;13.512;2022-12-29T01:23:24;-0.40;99.90
10828;DHT22;5467;59.334;13.512;2022-12-29T01:25:51;-0.50;99.90
10828;DHT22;5467;59.334;13.512;2022-12-29T01:28:18;-0.50;99.90
10828;DHT22;5467;59.334;13.512;2022-12-29T01:30:45;-0.50;99.90
10828;DHT22;5467;59.334;13.512;2022-12-29T01:33:12;-0.40;99.90
10828;DHT22;5467;59.334;13.512;2022-12-29T01:35:40;-0.40;99.90
10828;DHT22;5467;59.334;13.512;2022-12-29T01:38:08;-0.40;99.90
10828;DHT22;5467;59.334;13.512;2022-12-29T01:40:43;-0.40;99.90
10828;DHT22;5467;59.334;13.512;2022-12-29T01:43:12;-0.40;99.90
10828;DHT22;5467;59.334;13.512;2022-12-29T01:45:42;-0.30;99.90
10828;DHT22;5467;59.334;13.512;2022-12-29T01:48:11;-0.30;99.90
10828;DHT22;5467;59.334;13.512;2022-12-29T01:50:41;-0.30;99.90
10828;DHT22;5467;59.334;13.512;2022-12-29T01:53:14;-0.30;99.90
10828;DHT22;5467;59.334;13.512;2022-12-29T01:55:46;-0.20;99.90
10828;DHT22;5467;59.334;13.512;2022-12-29T01:58:15;-0.20;99.90
10828;DHT22;5467;59.334;13.512;2022-12-29T02:00:44;-0.10;99.90
10828;DHT22;5467;59.334;13.512;2022-12-29T02:03:12;-0.20;99.90
10828;DHT22;5467;59.334;13.512;2022-12-29T02:05:43;-0.20;99.90
10828;DHT22;5467;59.334;13.512;2022-12-29T02:08:14;-0.20;99.90
10828;DHT22;5467;59.334;13.512;2022-12-29T02:10:42;-0.10;99.90
10828;DHT22;5467;59.334;13.512;2022-12-29T02:13:11;-0.10;99.90
10828;DHT22;5467;59.334;13.512;2022-12-29T02:15:47;-0.10;99.90
10828;DHT22;5467;59.334;13.512;2022-12-29T02:18:25;-0.10;99.90
10828;DHT22;5467;59.334;13.512;2022-12-29T02:24:22;0.00;99.90
10828;DHT22;5467;59.334;13.512;2022-12-29T02:30:03;0.00;99.90
10828;DHT22;5467;59.334;13.512;2022-12-29T02:32:38;0.00;99.90
10828;DHT22;5467;59.334;13.512;2022-12-29T02:35:13;0.00;99.90
10828;DHT22;5467;59.334;13.512;2022-12-29T02:37:43;0.00;99.90
10828;DHT22;5467;59.334;13.512;2022-12-29T02:40:20;0.00;99.90
10828;DHT22;5467;59.334;13.512;2022-12-29T02:42:51;0.00;99.90
10828;DHT22;5467;59.334;13.512;2022-12-29T02:45:26;0.10;99.90
10828;DHT22;5467;59.334;13.512;2022-12-29T02:48:04;0.10;99.90
10828;DHT22;5467;59.334;13.512;2022-12-29T02:50:38;0.20;99.90
10828;DHT22;5467;59.334;13.512;2022-12-29T02:53:08;0.10;99.90
10828;DHT22;5467;59.334;13.512;2022-12-29T02:55:36;0.20;99.90
10828;DHT22;5467;59.334;13.512;2022-12-29T02:58:15;0.10;99.90
10828;DHT22;5467;59.334;13.512;2022-12-29T03:00:53;0.10;99.90
10828;DHT22;5467;59.334;13.512;2022-12-29T03:03:27;0.20;99.90
10828;DHT22;5467;59.334;13.512;2022-12-29T03:06:05;0.20;99.90
10828;DHT22;5467;59.334;13.512;2022-12-29T03:08:44;0.20;99.90
10828;DHT22;5467;59.334;13.512;2022-12-29T03:11:15;0.30;99.90
10828;DHT22;5467;59.334;13.512;2022-12-29T03:14:02;0.30;99.90
10828;DHT22;5467;59.334;13.512;2022-12-29T03:16:52;0.30;99.90
10828;DHT22;5467;59.334;13.512;2022-12-29T03:19:25;0.30;99.90
10828;DHT22;5467;59.334;13.512;2022-12-29T03:21:56;0.30;99.90
10828;DHT22;5467;59.334;13.512;2022-12-29T03:24:44;0.40;99.90
10828;DHT22;5467;59.334;13.512;2022-12-29T03:27:16;0.40;99.90
10828;DHT22;5467;59.334;13.512;2022-12-29T03:29:46;0.40;99.90
10828;DHT22;5467;59.334;13.512;2022-12-29T03:32:20;0.50;99.90
10828;DHT22;5467;59.334;13.512;2022-12-29T03:34:50;0.50;99.90
10828;DHT22;5467;59.334;13.512;2022-12-29T03:37:20;0.60;99.90
10828;DHT22;5467;59.334;13.512;2022-12-29T03:39:48;0.60;99.90
10828;DHT22;5467;59.334;13.512;2022-12-29T03:42:19;0.60;99.90
10828;DHT22;5467;59.334;13.512;2022-12-29T03:44:47;0.70;99.90
10828;DHT22;5467;59.334;13.512;2022-12-29T03:47:15;0.70;99.90
10828;DHT22;5467;59.334;13.512;2022-12-29T03:49:42;0.80;99.90
10828;DHT22;5467;59.334;13.512;2022-12-29T03:52:11;0.70;99.90
10828;DHT22;5467;59.334;13.512;2022-12-29T03:54:38;0.70;99.90
10828;DHT22;5467;59.334;13.512;2022-12-29T03:57:05;0.80;99.90
10828;DHT22;5467;59.334;13.512;2022-12-29T03:59:32;0.70;99.90
10828;DHT22;5467;59.334;13.512;2022-12-29T04:01:59;0.70;99.90
10828;DHT22;5467;59.334;13.512;2022-12-29T04:04:26;0.70;99.90
10828;DHT22;5467;59.334;13.512;2022-12-29T04:06:53;0.80;99.90
10828;DHT22;5467;59.334;13.512;2022-12-29T04:09:22;0.80;99.90
10828;DHT22;5467;59.334;13.512;2022-12-29T04:11:49;0.80;99.90
10828;DHT22;5467;59.334;13.512;2022-12-29T04:14:16;0.80;99.90
10828;DHT22;5467;59.334;13.512;2022-12-29T04:16:43;0.80;99.90
10828;DHT22;5467;59.334;13.512;2022-12-29T04:19:10;0.80;99.90
10828;DHT22;5467;59.334;13.512;2022-12-29T04:21:37;0.80;99.90
10828;DHT22;5467;59.334;13.512;2022-12-29T04:24:06;0.80;99.90
10828;DHT22;5467;59.334;13.512;2022-12-29T04:26:35;0.80;99.90
10828;DHT22;5467;59.334;13.512;2022-12-29T04:29:02;0.80;99.90
10828;DHT22;5467;59.334;13.512;2022-12-29T04:31:29;0.90;99.90
10828;DHT22;5467;59.334;13.512;2022-12-29T04:33:56;0.90;99.90
10828;DHT22;5467;59.334;13.512;2022-12-29T04:36:23;0.90;99.90
10828;DHT22;5467;59.334;13.512;2022-12-29T04:38:50;1.00;99.90
10828;DHT22;5467;59.334;13.512;2022-12-29T04:41:18;1.00;99.90
10828;DHT22;5467;59.334;13.512;2022-12-29T04:43:46;1.00;99.90
10828;DHT22;5467;59.334;13.512;2022-12-29T04:46:14;1.00;99.90
10828;DHT22;5467;59.334;13.512;2022-12-29T04:48:41;1.10;99.90
10828;DHT22;5467;59.334;13.512;2022-12-29T04:51:08;1.10;99.90
10828;DHT22;5467;59.334;13.512;2022-12-29T04:53:35;1.10;99.90
10828;DHT22;5467;59.334;13.512;2022-12-29T04:56:02;1.20;99.90
10828;DHT22;5467;59.334;13.512;2022-12-29T04:58:29;1.20;99.90
10828;DHT22;5467;59.334;13.512;2022-12-29T05:00:58;1.20;99.90
10828;DHT22;5467;59.334;13.512;2022-12-29T05:03:25;1.20;99.90
10828;DHT22;5467;59.334;13.512;2022-12-29T05:05:53;1.20;99.90
10828;DHT22;5467;59.334;13.512;2022-12-29T05:08:21;1.20;99.90
10828;DHT22;5467;59.334;13.512;2022-12-29T05:10:50;1.30;99.90
10828;DHT22;5467;59.334;13.512;2022-12-29T05:13:17;1.20;99.90
10828;DHT22;5467;59.334;13.512;2022-12-29T05:15:47;1.30;99.90
10828;DHT22;5467;59.334;13.512;2022-12-29T05:18:16;1.30;99.90
10828;DHT22;5467;59.334;13.512;2022-12-29T05:20:43;1.30;99.90
10828;DHT22;5467;59.334;13.512;2022-12-29T05:23:11;1.40;99.90
10828;DHT22;5467;59.334;13.512;2022-12-29T05:25:38;1.30;99.90
10828;DHT22;5467;59.334;13.512;2022-12-29T05:28:05;1.40;99.90
10828;DHT22;5467;59.334;13.512;2022-12-29T05:30:32;1.50;99.90
10828;DHT22;5467;59.334;13.512;2022-12-29T05:32:59;1.50;99.90
10828;DHT22;5467;59.334;13.512;2022-12-29T05:35:27;1.50;99.90
10828;DHT22;5467;59.334;13.512;2022-12-29T05:37:55;1.60;99.90
10828;DHT22;5467;59.334;13.512;2022-12-29T05:40:22;1.60;99.90
10828;DHT22;5467;59.334;13.512;2022-12-29T05:42:49;1.70;99.90
10828;DHT22;5467;59.334;13.512;2022-12-29T05:45:16;1.70;99.90
10828;DHT22;5467;59.334;13.512;2022-12-29T05:47:43;1.70;99.90
10828;DHT22;5467;59.334;13.512;2022-12-29T05:50:11;1.70;99.90
10828;DHT22;5467;59.334;13.512;2022-12-29T05:52:39;1.80;99.90
10828;DHT22;5467;59.334;13.512;2022-12-29T05:55:07;1.80;99.90
10828;DHT22;5467;59.334;13.512;2022-12-29T05:57:34;1.80;99.90
10828;DHT22;5467;59.334;13.512;2022-12-29T06:00:02;1.80;99.90
10828;DHT22;5467;59.334;13.512;2022-12-29T06:02:29;1.90;99.90
10828;DHT22;5467;59.334;13.512;2022-12-29T06:04:57;1.80;99.90
10828;DHT22;5467;59.334;13.512;2022-12-29T06:07:24;1.90;99.90
10828;DHT22;5467;59.334;13.512;2022-12-29T06:09:52;2.00;99.90
10828;DHT22;5467;59.334;13.512;2022-12-29T06:12:19;2.00;99.90
10828;DHT22;5467;59.334;13.512;2022-12-29T06:14:46;2.10;99.90
10828;DHT22;5467;59.334;13.512;2022-12-29T06:17:13;2.10;99.90
10828;DHT22;5467;59.334;13.512;2022-12-29T06:19:41;2.10;99.90
10828;DHT22;5467;59.334;13.512;2022-12-29T06:22:08;2.10;99.90
10828;DHT22;5467;59.334;13.512;2022-12-29T06:24:37;2.20;99.90
10828;DHT22;5467;59.334;13.512;2022-12-29T06:27:06;2.20;99.90
10828;DHT22;5467;59.334;13.512;2022-12-29T06:29:33;2.30;99.90
10828;DHT22;5467;59.334;13.512;2022-12-29T06:32:02;2.30;99.90
10828;DHT22;5467;59.334;13.512;2022-12-29T06:34:29;2.40;99.90
10828;DHT22;5467;59.334;13.512;2022-12-29T06:36:56;2.50;99.90
10828;DHT22;5467;59.334;13.512;2022-12-29T06:39:23;2.50;99.90
10828;DHT22;5467;59.334;13.512;2022-12-29T06:41:52;2.50;99.90
10828;DHT22;5467;59.334;13.512;2022-12-29T06:44:21;2.50;99.90
10828;DHT22;5467;59.334;13.512;2022-12-29T06:46:48;2.50;99.90
10828;DHT22;5467;59.334;13.512;2022-12-29T06:49:15;2.50;99.90
10828;DHT22;5467;59.334;13.512;2022-12-29T06:51:42;2.50;99.90
10828;DHT22;5467;59.334;13.512;2022-12-29T06:54:10;2.50;99.90
10828;DHT22;5467;59.334;13.512;2022-12-29T06:56:37;2.60;99.90
10828;DHT22;5467;59.334;13.512;2022-12-29T06:59:04;2.60;99.90
10828;DHT22;5467;59.334;13.512;2022-12-29T07:01:33;2.60;99.90
10828;DHT22;5467;59.334;13.512;2022-12-29T07:04:01;2.60;99.90
10828;DHT22;5467;59.334;13.512;2022-12-29T07:06:28;2.70;99.90
10828;DHT22;5467;59.334;13.512;2022-12-29T07:08:56;2.70;99.90
10828;DHT22;5467;59.334;13.512;2022-12-29T07:11:23;2.70;99.90
10828;DHT22;5467;59.334;13.512;2022-12-29T07:13:51;2.70;99.90
10828;DHT22;5467;59.334;13.512;2022-12-29T07:16:18;2.80;99.90
10828;DHT22;5467;59.334;13.512;2022-12-29T07:18:47;2.70;99.90
10828;DHT22;5467;59.334;13.512;2022-12-29T07:21:14;2.80;99.90
10828;DHT22;5467;59.334;13.512;2022-12-29T07:23:41;2.70;99.90
10828;DHT22;5467;59.334;13.512;2022-12-29T07:26:11;2.70;99.90
10828;DHT22;5467;59.334;13.512;2022-12-29T07:28:38;2.70;99.90
10828;DHT22;5467;59.334;13.512;2022-12-29T07:31:07;2.80;99.90
10828;DHT22;5467;59.334;13.512;2022-12-29T07:33:36;2.90;99.90
10828;DHT22;5467;59.334;13.512;2022-12-29T07:36:05;2.90;99.90
10828;DHT22;5467;59.334;13.512;2022-12-29T07:38:33;2.90;99.90
10828;DHT22;5467;59.334;13.512;2022-12-29T07:41:00;3.00;99.90
10828;DHT22;5467;59.334;13.512;2022-12-29T07:43:27;3.00;99.90
10828;DHT22;5467;59.334;13.512;2022-12-29T07:45:54;3.00;99.90
10828;DHT22;5467;59.334;13.512;2022-12-29T07:48:21;2.90;99.90
10828;DHT22;5467;59.334;13.512;2022-12-29T07:50:48;3.00;99.90
10828;DHT22;5467;59.334;13.512;2022-12-29T07:53:17;3.00;99.90
10828;DHT22;5467;59.334;13.512;2022-12-29T07:55:44;3.00;99.90
10828;DHT22;5467;59.334;13.512;2022-12-29T07:58:11;3.10;99.90
10828;DHT22;5467;59.334;13.512;2022-12-29T08:00:38;3.10;99.90
10828;DHT22;5467;59.334;13.512;2022-12-29T08:03:06;3.20;99.90
10828;DHT22;5467;59.334;13.512;2022-12-29T08:05:33;3.20;99.90
10828;DHT22;5467;59.334;13.512;2022-12-29T08:08:01;3.20;99.90
10828;DHT22;5467;59.334;13.512;2022-12-29T08:10:29;3.20;99.90
10828;DHT22;5467;59.334;13.512;2022-12-29T08:12:57;3.20;99.90
10828;DHT22;5467;59.334;13.512;2022-12-29T08:15:27;3.20;99.90
10828;DHT22;5467;59.334;13.512;2022-12-29T08:17:55;3.30;99.90
10828;DHT22;5467;59.334;13.512;2022-12-29T08:20:22;3.30;99.90
10828;DHT22;5467;59.334;13.512;2022-12-29T08:22:50;3.30;99.90
10828;DHT22;5467;59.334;13.512;2022-12-29T08:25:18;3.30;99.90
10828;DHT22;5467;59.334;13.512;2022-12-29T08:27:50;3.40;99.90
10828;DHT22;5467;59.334;13.512;2022-12-29T08:30:22;3.40;99.90
10828;DHT22;5467;59.334;13.512;2022-12-29T08:32:49;3.40;99.90
10828;DHT22;5467;59.334;13.512;2022-12-29T08:35:17;3.40;99.90
10828;DHT22;5467;59.334;13.512;2022-12-29T08:37:44;3.50;99.90
10828;DHT22;5467;59.334;13.512;2022-12-29T08:40:12;3.40;99.90
10828;DHT22;5467;59.334;13.512;2022-12-29T08:42:39;3.50;99.90
10828;DHT22;5467;59.334;13.512;2022-12-29T08:45:10;3.50;99.90
10828;DHT22;5467;59.334;13.512;2022-12-29T08:47:39;3.60;99.90
10828;DHT22;5467;59.334;13.512;2022-12-29T08:50:07;3.60;99.90
10828;DHT22;5467;59.334;13.512;2022-12-29T08:52:35;3.60;99.90
10828;DHT22;5467;59.334;13.512;2022-12-29T08:55:03;3.60;99.90
10828;DHT22;5467;59.334;13.512;2022-12-29T08:57:30;3.70;99.90
10828;DHT22;5467;59.334;13.512;2022-12-29T08:59:57;3.70;99.90
10828;DHT22;5467;59.334;13.512;2022-12-29T09:02:26;3.70;99.90
10828;DHT22;5467;59.334;13.512;2022-12-29T09:04:53;3.80;99.90
10828;DHT22;5467;59.334;13.512;2022-12-29T09:07:20;3.70;99.90
10828;DHT22;5467;59.334;13.512;2022-12-29T09:09:47;3.70;99.90
10828;DHT22;5467;59.334;13.512;2022-12-29T09:12:14;3.80;99.90
10828;DHT22;5467;59.334;13.512;2022-12-29T09:14:41;3.80;99.90
10828;DHT22;5467;59.334;13.512;2022-12-29T09:17:10;3.80;99.90
10828;DHT22;5467;59.334;13.512;2022-12-29T09:19:56;3.80;99.90
10828;DHT22;5467;59.334;13.512;2022-12-29T09:22:23;3.80;99.90
10828;DHT22;5467;59.334;13.512;2022-12-29T09:24:50;3.90;99.90
10828;DHT22;5467;59.334;13.512;2022-12-29T09:27:17;3.90;99.90
10828;DHT22;5467;59.334;13.512;2022-12-29T09:29:45;3.90;99.90
10828;DHT22;5467;59.334;13.512;2022-12-29T09:32:12;4.00;99.90
10828;DHT22;5467;59.334;13.512;2022-12-29T09:34:39;4.00;99.90
10828;DHT22;5467;59.334;13.512;2022-12-29T09:37:08;4.10;99.90
10828;DHT22;5467;59.334;13.512;2022-12-29T09:39:36;4.20;99.90
10828;DHT22;5467;59.334;13.512;2022-12-29T09:42:08;4.20;99.90
10828;DHT22;5467;59.334;13.512;2022-12-29T09:44:49;4.30;99.90
10828;DHT22;5467;59.334;13.512;2022-12-29T09:47:21;4.30;99.90
10828;DHT22;5467;59.334;13.512;2022-12-29T09:49:52;4.40;99.90
10828;DHT22;5467;59.334;13.512;2022-12-29T09:52:23;4.40;99.90
10828;DHT22;5467;59.334;13.512;2022-12-29T09:54:57;4.40;99.90
10828;DHT22;5467;59.334;13.512;2022-12-29T09:57:26;4.40;99.90
10828;DHT22;5467;59.334;13.512;2022-12-29T09:59:57;4.40;99.90
10828;DHT22;5467;59.334;13.512;2022-12-29T10:02:36;4.40;99.90
10828;DHT22;5467;59.334;13.512;2022-12-29T10:05:16;4.40;99.90
10828;DHT22;5467;59.334;13.512;2022-12-29T10:07:52;4.50;99.90
10828;DHT22;5467;59.334;13.512;2022-12-29T10:10:32;4.50;99.90
10828;DHT22;5467;59.334;13.512;2022-12-29T10:13:15;4.50;99.90
10828;DHT22;5467;59.334;13.512;2022-12-29T10:15:52;4.50;99.90
10828;DHT22;5467;59.334;13.512;2022-12-29T10:18:52;4.50;99.90
10828;DHT22;5467;59.334;13.512;2022-12-29T10:21:30;4.60;99.90
10828;DHT22;5467;59.334;13.512;2022-12-29T10:24:04;4.60;99.90
10828;DHT22;5467;59.334;13.512;2022-12-29T10:26:37;4.70;99.90
10828;DHT22;5467;59.334;13.512;2022-12-29T10:29:08;4.80;99.90
10828;DHT22;5467;59.334;13.512;2022-12-29T10:31:43;4.80;99.90
10828;DHT22;5467;59.334;13.512;2022-12-29T10:34:19;4.90;99.90
10828;DHT22;5467;59.334;13.512;2022-12-29T10:36:54;4.90;99.90
10828;DHT22;5467;59.334;13.512;2022-12-29T10:39:30;5.00;99.90
10828;DHT22;5467;59.334;13.512;2022-12-29T10:42:07;5.00;99.90
10828;DHT22;5467;59.334;13.512;2022-12-29T10:44:36;5.00;99.90
10828;DHT22;5467;59.334;13.512;2022-12-29T10:47:06;5.00;99.90
10828;DHT22;5467;59.334;13.512;2022-12-29T10:49:39;5.10;99.90
10828;DHT22;5467;59.334;13.512;2022-12-29T10:52:09;5.10;99.90
10828;DHT22;5467;59.334;13.512;2022-12-29T10:54:42;5.20;99.90
10828;DHT22;5467;59.334;13.512;2022-12-29T10:57:15;5.20;99.90
10828;DHT22;5467;59.334;13.512;2022-12-29T10:59:46;5.20;99.90
10828;DHT22;5467;59.334;13.512;2022-12-29T11:02:33;5.30;99.90
10828;DHT22;5467;59.334;13.512;2022-12-29T11:05:05;5.20;99.90
10828;DHT22;5467;59.334;13.512;2022-12-29T11:07:34;5.30;99.90
10828;DHT22;5467;59.334;13.512;2022-12-29T11:10:28;5.30;99.90
10828;DHT22;5467;59.334;13.512;2022-12-29T11:12:58;5.40;99.90
10828;DHT22;5467;59.334;13.512;2022-12-29T11:15:25;5.40;99.90
10828;DHT22;5467;59.334;13.512;2022-12-29T11:17:53;5.50;99.90
10828;DHT22;5467;59.334;13.512;2022-12-29T11:20:32;5.40;99.90
10828;DHT22;5467;59.334;13.512;2022-12-29T11:23:00;5.40;99.90
10828;DHT22;5467;59.334;13.512;2022-12-29T11:25:30;5.50;99.90
10828;DHT22;5467;59.334;13.512;2022-12-29T11:27:59;5.50;99.90
10828;DHT22;5467;59.334;13.512;2022-12-29T11:30:29;5.60;99.90
10828;DHT22;5467;59.334;13.512;2022-12-29T11:32:57;5.60;99.90
10828;DHT22;5467;59.334;13.512;2022-12-29T11:35:33;5.70;99.90
10828;DHT22;5467;59.334;13.512;2022-12-29T11:38:02;5.70;99.90
10828;DHT22;5467;59.334;13.512;2022-12-29T11:40:31;5.60;99.90
10828;DHT22;5467;59.334;13.512;2022-12-29T11:43:04;5.60;99.90
10828;DHT22;5467;59.334;13.512;2022-12-29T11:45:34;5.70;99.90
10828;DHT22;5467;59.334;13.512;2022-12-29T11:48:07;5.70;99.90
10828;DHT22;5467;59.334;13.512;2022-12-29T11:50:39;5.70;99.90
10828;DHT22;5467;59.334;13.512;2022-12-29T11:53:15;5.70;99.90
10828;DHT22;5467;59.334;13.512;2022-12-29T11:55:53;5.70;99.90
10828;DHT22;5467;59.334;13.512;2022-12-29T11:58:28;5.80;99.90
10828;DHT22;5467;59.334;13.512;2022-12-29T12:01:04;5.80;99.90
10828;DHT22;5467;59.334;13.512;2022-12-29T12:03:37;5.80;99.90
10828;DHT22;5467;59.334;13.512;2022-12-29T12:06:12;5.90;99.90
10828;DHT22;5467;59.334;13.512;2022-12-29T12:08:45;5.80;99.90
10828;DHT22;5467;59.334;13.512;2022-12-29T12:11:18;5.80;99.90
10828;DHT22;5467;59.334;13.512;2022-12-29T12:13:56;5.90;99.90
10828;DHT22;5467;59.334;13.512;2022-12-29T12:16:27;5.90;99.90
10828;DHT22;5467;59.334;13.512;2022-12-29T12:18:58;5.90;99.90
10828;DHT22;5467;59.334;13.512;2022-12-29T12:21:33;5.90;99.90
10828;DHT22;5467;59.334;13.512;2022-12-29T12:24:30;5.90;99.90
10828;DHT22;5467;59.334;13.512;2022-12-29T12:27:09;5.90;99.90
10828;DHT22;5467;59.334;13.512;2022-12-29T12:29:41;5.90;99.90
10828;DHT22;5467;59.334;13.512;2022-12-29T12:32:14;6.00;99.90
10828;DHT22;5467;59.334;13.512;2022-12-29T12:34:44;5.90;99.90
10828;DHT22;5467;59.334;13.512;2022-12-29T12:40:25;6.00;99.90
10828;DHT22;5467;59.334;13.512;2022-12-29T12:43:06;6.00;99.90
10828;DHT22;5467;59.334;13.512;2022-12-29T12:45:49;6.00;99.90
10828;DHT22;5467;59.334;13.512;2022-12-29T12:48:42;6.00;99.90
10828;DHT22;5467;59.334;13.512;2022-12-29T12:51:17;6.10;99.90
10828;DHT22;5467;59.334;13.512;2022-12-29T12:53:58;6.10;99.90
10828;DHT22;5467;59.334;13.512;2022-12-29T12:56:45;6.20;99.90
10828;DHT22;5467;59.334;13.512;2022-12-29T12:59:25;6.20;99.90
10828;DHT22;5467;59.334;13.512;2022-12-29T13:02:01;6.30;99.90
10828;DHT22;5467;59.334;13.512;2022-12-29T13:04:55;6.30;99.90
10828;DHT22;5467;59.334;13.512;2022-12-29T13:07:32;6.30;99.90
10828;DHT22;5467;59.334;13.512;2022-12-29T13:10:24;6.30;99.90
10828;DHT22;5467;59.334;13.512;2022-12-29T13:13:05;6.30;99.90
10828;DHT22;5467;59.334;13.512;2022-12-29T13:15:44;6.30;99.90
10828;DHT22;5467;59.334;13.512;2022-12-29T13:18:21;6.30;99.90
10828;DHT22;5467;59.334;13.512;2022-12-29T13:20:57;6.30;99.90
10828;DHT22;5467;59.334;13.512;2022-12-29T13:23:34;6.30;99.90
10828;DHT22;5467;59.334;13.512;2022-12-29T13:26:11;6.30;99.90
10828;DHT22;5467;59.334;13.512;2022-12-29T13:28:47;6.30;99.90
10828;DHT22;5467;59.334;13.512;2022-12-29T13:31:26;6.30;99.90
10828;DHT22;5467;59.334;13.512;2022-12-29T13:34:01;6.40;99.90
10828;DHT22;5467;59.334;13.512;2022-12-29T13:36:35;6.30;99.90
10828;DHT22;5467;59.334;13.512;2022-12-29T13:39:09;6.30;99.90
10828;DHT22;5467;59.334;13.512;2022-12-29T13:41:41;6.30;99.90
10828;DHT22;5467;59.334;13.512;2022-12-29T13:44:15;6.30;99.90
10828;DHT22;5467;59.334;13.512;2022-12-29T13:46:45;6.30;99.90
10828;DHT22;5467;59.334;13.512;2022-12-29T13:49:17;6.30;99.90
10828;DHT22;5467;59.334;13.512;2022-12-29T13:51:48;6.30;99.90
10828;DHT22;5467;59.334;13.512;2022-12-29T13:54:27;6.30;99.90
10828;DHT22;5467;59.334;13.512;2022-12-29T13:57:02;6.30;99.90
10828;DHT22;5467;59.334;13.512;2022-12-29T13:59:40;6.30;99.90
10828;DHT22;5467;59.334;13.512;2022-12-29T14:02:27;6.40;99.90
10828;DHT22;5467;59.334;13.512;2022-12-29T14:05:00;6.40;99.90
10828;DHT22;5467;59.334;13.512;2022-12-29T14:07:28;6.40;99.90
10828;DHT22;5467;59.334;13.512;2022-12-29T14:09:56;6.40;99.90
10828;DHT22;5467;59.334;13.512;2022-12-29T14:12:31;6.40;99.90
10828;DHT22;5467;59.334;13.512;2022-12-29T14:15:19;6.40;99.90
10828;DHT22;5467;59.334;13.512;2022-12-29T14:18:13;6.40;99.90
10828;DHT22;5467;59.334;13.512;2022-12-29T14:20:51;6.40;99.90
10828;DHT22;5467;59.334;13.512;2022-12-29T14:23:37;6.30;99.90
10828;DHT22;5467;59.334;13.512;2022-12-29T14:26:14;6.30;99.90
10828;DHT22;5467;59.334;13.512;2022-12-29T14:28:42;6.30;99.90
10828;DHT22;5467;59.334;13.512;2022-12-29T14:31:35;6.40;99.90
10828;DHT22;5467;59.334;13.512;2022-12-29T14:34:30;6.30;99.90
10828;DHT22;5467;59.334;13.512;2022-12-29T14:36:59;6.30;99.90
10828;DHT22;5467;59.334;13.512;2022-12-29T14:39:36;6.30;99.90
10828;DHT22;5467;59.334;13.512;2022-12-29T14:42:05;6.30;99.90
10828;DHT22;5467;59.334;13.512;2022-12-29T14:44:34;6.30;99.90
10828;DHT22;5467;59.334;13.512;2022-12-29T14:47:17;6.30;99.90
10828;DHT22;5467;59.334;13.512;2022-12-29T14:49:47;6.30;99.90
10828;DHT22;5467;59.334;13.512;2022-12-29T14:52:17;6.40;99.90
10828;DHT22;5467;59.334;13.512;2022-12-29T14:54:53;6.40;99.90
10828;DHT22;5467;59.334;13.512;2022-12-29T14:57:30;6.40;99.90
10828;DHT22;5467;59.334;13.512;2022-12-29T15:00:04;6.40;99.90
10828;DHT22;5467;59.334;13.512;2022-12-29T15:02:36;6.50;99.90
10828;DHT22;5467;59.334;13.512;2022-12-29T15:05:24;6.40;99.90
10828;DHT22;5467;59.334;13.512;2022-12-29T15:07:53;6.40;99.90
10828;DHT22;5467;59.334;13.512;2022-12-29T15:10:22;6.40;99.90
10828;DHT22;5467;59.334;13.512;2022-12-29T15:12:53;6.50;99.90
10828;DHT22;5467;59.334;13.512;2022-12-29T15:15:22;6.50;99.90
10828;DHT22;5467;59.334;13.512;2022-12-29T15:17:49;6.50;99.90
10828;DHT22;5467;59.334;13.512;2022-12-29T15:20:26;6.50;99.90
10828;DHT22;5467;59.334;13.512;2022-12-29T15:22:56;6.50;99.90
10828;DHT22;5467;59.334;13.512;2022-12-29T15:25:24;6.50;99.90
10828;DHT22;5467;59.334;13.512;2022-12-29T15:27:55;6.50;99.90
10828;DHT22;5467;59.334;13.512;2022-12-29T15:30:24;6.60;99.90
10828;DHT22;5467;59.334;13.512;2022-12-29T15:32:51;6.50;99.90
10828;DHT22;5467;59.334;13.512;2022-12-29T15:35:29;6.60;99.90
10828;DHT22;5467;59.334;13.512;2022-12-29T15:37:56;6.60;99.90
10828;DHT22;5467;59.334;13.512;2022-12-29T15:40:26;6.60;99.90
10828;DHT22;5467;59.334;13.512;2022-12-29T15:45:46;6.50;99.90
10828;DHT22;5467;59.334;13.512;2022-12-29T15:48:17;6.50;99.90
10828;DHT22;5467;59.334;13.512;2022-12-29T15:50:48;6.50;99.90
10828;DHT22;5467;59.334;13.512;2022-12-29T15:53:20;6.50;99.90
10828;DHT22;5467;59.334;13.512;2022-12-29T15:55:52;6.50;99.90
10828;DHT22;5467;59.334;13.512;2022-12-29T15:58:21;6.50;99.90
10828;DHT22;5467;59.334;13.512;2022-12-29T16:00:50;6.40;99.90
10828;DHT22;5467;59.334;13.512;2022-12-29T16:03:19;6.40;99.90
10828;DHT22;5467;59.334;13.512;2022-12-29T16:05:53;6.40;99.90
10828;DHT22;5467;59.334;13.512;2022-12-29T16:08:38;6.40;99.90
10828;DHT22;5467;59.334;13.512;2022-12-29T16:11:16;6.40;99.90
10828;DHT22;5467;59.334;13.512;2022-12-29T16:13:45;6.40;99.90
10828;DHT22;5467;59.334;13.512;2022-12-29T16:16:16;6.40;99.90
10828;DHT22;5467;59.334;13.512;2022-12-29T16:18:45;6.40;99.90
10828;DHT22;5467;59.334;13.512;2022-12-29T16:21:19;6.40;99.90
10828;DHT22;5467;59.334;13.512;2022-12-29T16:23:50;6.40;99.90
10828;DHT22;5467;59.334;13.512;2022-12-29T16:26:19;6.40;99.90